Time;durP1;ratioP1;P1;durP2;ratioP2;P2;SDS_P1;SDS_P2;PMS_P1;PMS_P2;Temp;Humidity;BMP_temperature;BMP_pressure;BME280_temperature;BME280_humidity;BME280_pressure;Samples;Min_cycle;Max_cycle;Signal;HPM_P1;HPM_P2
2023/03/03 00:01:20;;;;;;;1.60;1.50;;;2.00;98.20;;;;;;5052992;28;20497;-74
2023/03/03 00:03:46;;;;;;;1.70;1.60;;;2.00;98.20;;;;;;5051190;28;20464;-74
2023/03/03 00:06:14;;;;;;;1.60;1.50;;;1.90;98.20;;;;;;5048389;28;21852;-74
2023/03/03 00:08:41;;;;;;;1.60;1.50;;;1.90;98.20;;;;;;5048541;28;20468;-74
2023/03/03 00:11:10;;;;;;;1.70;1.60;;;1.90;98.20;;;;;;5051768;28;20493;-73
2023/03/03 00:13:45;;;;;;;1.60;1.50;;;1.90;98.20;;;;;;5050501;28;20851;-73
2023/03/03 00:16:21;;;;;;;1.60;1.50;;;1.90;98.20;;;;;;5042510;28;20504;-74
2023/03/03 00:18:48;;;;;;;1.50;1.40;;;1.90;98.20;;;;;;5051093;28;20617;-74
2023/03/03 00:21:28;;;;;;;1.60;1.50;;;1.80;98.20;;;;;;5049391;28;20471;-73
2023/03/03 00:23:55;;;;;;;1.60;1.50;;;1.80;98.20;;;;;;5051635;28;20528;-73
2023/03/03 00:26:35;;;;;;;1.70;1.60;;;1.80;98.20;;;;;;5046534;28;20496;-74
2023/03/03 00:29:19;;;;;;;1.70;1.60;;;1.80;98.20;;;;;;5053873;28;20572;-73
2023/03/03 00:31:46;;;;;;;1.60;1.50;;;1.80;98.20;;;;;;5041700;28;20517;-74
2023/03/03 00:34:24;;;;;;;1.60;1.50;;;1.70;98.20;;;;;;5058007;28;20973;-73
2023/03/03 00:36:54;;;;;;;1.60;1.50;;;1.70;98.20;;;;;;5043808;28;20872;-74
2023/03/03 00:39:29;;;;;;;1.60;1.50;;;1.60;98.20;;;;;;5057669;28;20481;-73
2023/03/03 00:41:59;;;;;;;1.60;1.50;;;1.50;98.20;;;;;;5043350;28;20490;-74
2023/03/03 00:44:39;;;;;;;1.60;1.50;;;1.50;98.20;;;;;;5059202;28;20489;-73
2023/03/03 00:47:27;;;;;;;1.60;1.50;;;1.40;98.20;;;;;;5045601;28;20563;-73
2023/03/03 00:49:56;;;;;;;1.60;1.50;;;1.40;98.20;;;;;;5059583;28;20493;-74
2023/03/03 00:52:28;;;;;;;1.63;1.53;;;1.40;98.20;;;;;;5040106;28;20485;-74
2023/03/03 00:54:55;;;;;;;1.70;1.60;;;1.30;98.20;;;;;;5058377;28;20455;-74
2023/03/03 00:57:23;;;;;;;1.67;1.57;;;1.30;98.20;;;;;;5039529;28;20490;-74
2023/03/03 00:59:50;;;;;;;1.67;1.57;;;1.30;98.20;;;;;;5057415;28;20482;-74
2023/03/03 01:02:16;;;;;;;1.60;1.50;;;1.30;98.20;;;;;;5039484;28;20487;-74
2023/03/03 01:04:48;;;;;;;2.47;2.27;;;1.20;98.20;;;;;;5058406;28;20458;-74
2023/03/03 01:07:15;;;;;;;1.63;1.53;;;1.20;98.20;;;;;;5033526;28;20512;-74
2023/03/03 01:09:41;;;;;;;1.60;1.50;;;1.20;98.20;;;;;;5061803;28;20520;-73
2023/03/03 01:12:09;;;;;;;1.70;1.60;;;1.10;98.20;;;;;;5041712;28;20490;-73
2023/03/03 01:14:37;;;;;;;1.60;1.50;;;1.10;98.20;;;;;;5060648;28;20465;-73
2023/03/03 01:17:05;;;;;;;1.70;1.60;;;1.10;98.20;;;;;;5039162;28;20866;-73
2023/03/03 01:19:31;;;;;;;1.70;1.60;;;1.00;98.20;;;;;;5056085;28;20477;-73
2023/03/03 01:21:58;;;;;;;1.70;1.60;;;1.00;98.20;;;;;;5042392;28;20994;-74
2023/03/03 01:24:25;;;;;;;1.60;1.50;;;0.90;98.20;;;;;;5056007;28;20468;-73
2023/03/03 01:26:55;;;;;;;1.80;1.70;;;0.90;98.20;;;;;;5040886;28;20481;-73
2023/03/03 01:29:21;;;;;;;1.80;1.70;;;0.90;98.20;;;;;;5057452;28;20932;-73
2023/03/03 01:31:50;;;;;;;1.60;1.50;;;0.90;98.20;;;;;;5042260;28;20486;-74
2023/03/03 01:34:16;;;;;;;1.60;1.50;;;1.00;98.20;;;;;;5056011;28;20461;-73
2023/03/03 01:36:43;;;;;;;1.60;1.50;;;1.00;98.20;;;;;;5046372;28;20628;-74
2023/03/03 01:39:11;;;;;;;1.70;1.60;;;1.00;98.20;;;;;;5057538;28;20478;-74
2023/03/03 01:41:37;;;;;;;1.60;1.50;;;1.10;98.20;;;;;;5046917;28;20540;-74
2023/03/03 01:44:04;;;;;;;1.70;1.60;;;1.10;98.20;;;;;;5047440;28;20465;-73
2023/03/03 01:46:55;;;;;;;1.70;1.60;;;1.20;98.20;;;;;;5045636;28;20482;-74
2023/03/03 01:49:26;;;;;;;1.73;1.63;;;1.30;98.20;;;;;;5058283;28;20486;-74
2023/03/03 01:51:57;;;;;;;1.70;1.60;;;1.30;98.20;;;;;;5040594;28;20478;-74
2023/03/03 01:54:28;;;;;;;1.70;1.60;;;1.40;98.20;;;;;;5053467;28;20457;-74
2023/03/03 01:56:57;;;;;;;1.60;1.50;;;1.40;98.20;;;;;;5040179;28;20475;-74
2023/03/03 01:59:29;;;;;;;1.63;1.53;;;1.40;98.20;;;;;;5055487;28;20481;-73
2023/03/03 02:01:57;;;;;;;1.73;1.63;;;1.40;98.20;;;;;;5041654;28;20485;-74
2023/03/03 02:04:25;;;;;;;1.67;1.57;;;1.40;98.20;;;;;;5058971;28;20453;-74
2023/03/03 02:06:57;;;;;;;1.60;1.50;;;1.40;98.20;;;;;;5041396;28;20471;-74
2023/03/03 02:09:32;;;;;;;1.70;1.60;;;1.40;98.20;;;;;;5067110;28;20477;-74
2023/03/03 02:12:03;;;;;;;1.60;1.50;;;1.50;98.20;;;;;;5045280;28;20530;-74
2023/03/03 02:14:30;;;;;;;1.60;1.50;;;1.50;98.20;;;;;;5059613;28;20458;-74
2023/03/03 02:16:58;;;;;;;1.53;1.40;;;1.50;98.20;;;;;;5041616;28;20488;-74
2023/03/03 02:19:32;;;;;;;1.67;1.57;;;1.50;98.20;;;;;;5058754;28;20986;-74
2023/03/03 02:22:01;;;;;;;1.70;1.60;;;1.60;98.20;;;;;;5032936;28;20493;-74
2023/03/03 02:24:31;;;;;;;1.70;1.60;;;1.60;98.20;;;;;;5055518;28;20538;-72
2023/03/03 02:26:59;;;;;;;1.63;1.53;;;1.60;98.20;;;;;;5040246;28;20483;-73
2023/03/03 02:29:26;;;;;;;1.60;1.40;;;1.60;98.20;;;;;;5061499;28;20489;-73
2023/03/03 02:31:53;;;;;;;1.70;1.60;;;1.60;98.20;;;;;;5041729;28;21005;-75
2023/03/03 02:34:20;;;;;;;1.53;1.43;;;1.60;98.20;;;;;;5055773;28;20462;-73
2023/03/03 02:36:46;;;;;;;1.60;1.50;;;1.50;98.20;;;;;;5053195;28;20481;-73
2023/03/03 02:39:18;;;;;;;1.60;1.47;;;1.50;98.20;;;;;;5060530;28;20880;-74
2023/03/03 02:41:50;;;;;;;1.70;1.60;;;1.50;98.20;;;;;;5045122;28;20479;-72
2023/03/03 02:44:20;;;;;;;1.63;1.53;;;1.50;98.20;;;;;;5053343;28;20457;-76
2023/03/03 02:46:49;;;;;;;1.60;1.50;;;1.50;98.20;;;;;;5042094;28;20483;-76
2023/03/03 02:49:18;;;;;;;1.60;1.50;;;1.50;98.20;;;;;;5054323;28;20508;-74
2023/03/03 02:51:45;;;;;;;1.67;1.57;;;1.50;98.20;;;;;;5044145;28;20482;-74
2023/03/03 02:54:13;;;;;;;1.60;1.50;;;1.50;98.20;;;;;;5053787;28;20457;-74
2023/03/03 02:56:40;;;;;;;1.60;1.50;;;1.50;98.20;;;;;;5043454;28;20648;-78
2023/03/03 02:59:07;;;;;;;1.70;1.60;;;1.50;98.20;;;;;;5053119;28;20519;-75
2023/03/03 03:01:36;;;;;;;1.83;1.73;;;1.60;98.20;;;;;;5046785;28;20479;-75
2023/03/03 03:04:06;;;;;;;1.70;1.60;;;1.50;98.20;;;;;;5051471;28;20468;-75
2023/03/03 03:06:33;;;;;;;1.60;1.50;;;1.50;98.20;;;;;;5049121;28;20490;-76
2023/03/03 03:09:00;;;;;;;1.70;1.60;;;1.50;98.20;;;;;;5054784;28;20477;-75
2023/03/03 03:11:27;;;;;;;1.60;1.50;;;1.50;98.20;;;;;;5055407;28;20480;-76
2023/03/03 03:13:54;;;;;;;1.70;1.60;;;1.60;98.20;;;;;;5060576;28;20465;-75
2023/03/03 03:16:20;;;;;;;1.60;1.50;;;1.60;98.20;;;;;;5053150;28;20484;-75
2023/03/03 03:18:49;;;;;;;1.60;1.50;;;1.60;98.20;;;;;;5066836;28;20485;-75
2023/03/03 03:21:16;;;;;;;1.60;1.50;;;1.60;98.20;;;;;;5050669;28;20557;-75
2023/03/03 03:23:43;;;;;;;1.70;1.60;;;1.60;98.20;;;;;;5047852;28;20466;-74
2023/03/03 03:26:10;;;;;;;1.60;1.50;;;1.60;98.20;;;;;;5053183;28;20486;-75
2023/03/03 03:28:38;;;;;;;3.40;3.20;;;1.60;98.20;;;;;;5057248;28;20471;-74
2023/03/03 03:31:06;;;;;;;1.70;1.60;;;1.60;98.20;;;;;;5051382;28;20488;-74
2023/03/03 03:33:33;;;;;;;1.60;1.50;;;1.60;98.20;;;;;;5051809;28;20457;-74
2023/03/03 03:36:03;;;;;;;1.60;1.50;;;1.60;98.20;;;;;;5048459;28;20469;-76
2023/03/03 03:38:31;;;;;;;1.70;1.60;;;1.60;98.20;;;;;;5059328;28;20556;-74
2023/03/03 03:40:58;;;;;;;1.60;1.50;;;1.60;98.20;;;;;;5050676;28;20461;-74
2023/03/03 03:43:25;;;;;;;1.60;1.50;;;1.60;98.20;;;;;;5043344;28;20461;-74
2023/03/03 03:45:52;;;;;;;1.60;1.47;;;1.60;98.20;;;;;;5053682;28;20480;-74
2023/03/03 03:48:19;;;;;;;1.60;1.50;;;1.60;98.20;;;;;;5038463;28;20856;-75
2023/03/03 03:50:47;;;;;;;1.60;1.50;;;1.60;98.20;;;;;;5062900;28;20559;-75
2023/03/03 03:53:16;;;;;;;1.60;1.50;;;1.60;98.20;;;;;;5035964;28;20477;-75
2023/03/03 03:55:42;;;;;;;1.60;1.50;;;1.50;98.20;;;;;;5063668;28;20458;-74
2023/03/03 03:58:12;;;;;;;1.60;1.50;;;1.50;98.20;;;;;;5045896;28;20483;-74
2023/03/03 04:00:40;;;;;;;9.80;9.30;;;1.50;98.20;;;;;;5065822;28;20477;-73
2023/03/03 04:03:07;;;;;;;1.60;1.50;;;1.50;98.20;;;;;;5025504;28;20482;-73
2023/03/03 04:05:34;;;;;;;1.60;1.50;;;1.50;98.20;;;;;;5064669;28;20460;-73
2023/03/03 04:08:00;;;;;;;1.50;1.40;;;1.60;98.20;;;;;;5029966;28;20486;-73
2023/03/03 04:10:28;;;;;;;1.70;1.60;;;1.60;98.20;;;;;;5065287;28;20473;-73
2023/03/03 04:12:55;;;;;;;2.53;2.33;;;1.70;98.20;;;;;;5028882;28;20491;-75
2023/03/03 04:15:22;;;;;;;2.67;2.47;;;1.70;98.20;;;;;;5063633;28;20919;-76
2023/03/03 04:17:49;;;;;;;1.60;1.50;;;1.70;98.20;;;;;;5027566;28;20490;-73
2023/03/03 04:20:16;;;;;;;1.60;1.40;;;1.70;98.20;;;;;;5065246;28;20517;-75
2023/03/03 04:22:43;;;;;;;1.60;1.43;;;1.70;98.20;;;;;;5049204;28;20489;-75
2023/03/03 04:25:14;;;;;;;1.60;1.50;;;1.70;98.20;;;;;;5063348;28;20468;-75
2023/03/03 04:27:43;;;;;;;1.60;1.50;;;1.70;98.20;;;;;;5031867;28;20529;-75
2023/03/03 04:30:12;;;;;;;1.70;1.60;;;1.70;98.20;;;;;;5065653;28;20485;-75
2023/03/03 04:32:38;;;;;;;1.50;1.40;;;1.70;98.20;;;;;;5025341;28;20911;-73
2023/03/03 04:35:06;;;;;;;1.60;1.50;;;1.80;98.20;;;;;;5063955;28;20465;-73
2023/03/03 04:37:33;;;;;;;2.00;1.90;;;1.80;98.20;;;;;;5031835;28;20486;-73
2023/03/03 04:40:00;;;;;;;1.60;1.50;;;1.70;98.20;;;;;;5062935;28;20481;-73
2023/03/03 04:42:27;;;;;;;1.80;1.70;;;1.70;98.20;;;;;;5032073;28;20483;-73
2023/03/03 04:44:55;;;;;;;1.60;1.50;;;1.70;98.20;;;;;;5061188;28;21182;-74
2023/03/03 04:47:22;;;;;;;1.53;1.40;;;1.70;98.20;;;;;;5034122;28;20486;-76
2023/03/03 04:49:49;;;;;;;1.60;1.40;;;1.70;98.20;;;;;;5059954;28;20501;-73
2023/03/03 04:52:16;;;;;;;1.70;1.60;;;1.70;98.20;;;;;;5051388;28;20485;-76
2023/03/03 04:54:43;;;;;;;1.60;1.50;;;1.70;98.20;;;;;;5062883;28;20457;-73
2023/03/03 04:57:10;;;;;;;1.57;1.40;;;1.70;98.20;;;;;;5034767;28;20493;-76
2023/03/03 04:59:36;;;;;;;1.93;1.83;;;1.70;98.20;;;;;;5057428;28;20890;-74
2023/03/03 05:02:04;;;;;;;1.57;1.40;;;1.70;98.20;;;;;;5040366;28;21612;-74
2023/03/03 05:04:32;;;;;;;1.60;1.40;;;1.80;98.20;;;;;;5054242;28;20453;-74
2023/03/03 05:06:58;;;;;;;1.63;1.53;;;1.80;98.20;;;;;;5042045;28;21078;-76
2023/03/03 05:09:25;;;;;;;1.60;1.40;;;1.80;98.20;;;;;;5052674;28;20488;-74
2023/03/03 05:11:52;;;;;;;1.70;1.60;;;1.80;98.20;;;;;;5040433;28;20490;-75
2023/03/03 05:14:19;;;;;;;1.60;1.50;;;1.80;98.20;;;;;;5052280;28;20469;-77
2023/03/03 05:16:46;;;;;;;1.60;1.50;;;1.80;98.20;;;;;;5040372;28;20483;-75
2023/03/03 05:19:14;;;;;;;1.60;1.40;;;1.80;98.20;;;;;;5053270;28;20566;-74
2023/03/03 05:21:41;;;;;;;1.60;1.50;;;1.70;98.20;;;;;;5040777;28;20491;-74
2023/03/03 05:24:08;;;;;;;1.60;1.50;;;1.70;98.20;;;;;;5050227;28;20457;-76
2023/03/03 05:26:35;;;;;;;1.60;1.50;;;1.80;98.20;;;;;;5042023;28;20475;-75
2023/03/03 05:29:02;;;;;;;1.60;1.50;;;1.80;98.20;;;;;;5044927;28;20485;-74
2023/03/03 05:31:29;;;;;;;1.60;1.50;;;1.80;98.20;;;;;;5054216;28;20473;-75
2023/03/03 05:33:56;;;;;;;1.60;1.50;;;1.80;98.20;;;;;;5064351;28;20462;-75
2023/03/03 05:36:24;;;;;;;1.60;1.50;;;1.80;98.20;;;;;;5049329;28;20478;-74
2023/03/03 05:38:51;;;;;;;1.70;1.60;;;1.80;98.20;;;;;;5049403;28;20484;-77
2023/03/03 05:41:18;;;;;;;1.50;1.40;;;1.80;98.20;;;;;;5052302;28;20474;-76
2023/03/03 05:43:44;;;;;;;1.57;1.40;;;1.80;98.20;;;;;;5042161;28;20465;-75
2023/03/03 05:46:12;;;;;;;1.60;1.50;;;1.70;98.20;;;;;;5052463;28;20486;-75
2023/03/03 05:48:39;;;;;;;4.03;3.73;;;1.70;98.20;;;;;;5047288;28;20569;-75
2023/03/03 05:51:06;;;;;;;1.60;1.50;;;1.70;98.20;;;;;;5058530;28;20460;-75
2023/03/03 05:53:34;;;;;;;1.70;1.50;;;1.70;98.20;;;;;;5063203;28;20453;-76
2023/03/03 05:58:29;;;;;;;1.60;1.50;;;1.70;98.20;;;;;;5033150;28;20841;-75
2023/03/03 06:00:56;;;;;;;1.70;1.60;;;1.70;98.20;;;;;;5040745;28;20462;-74
2023/03/03 06:03:22;;;;;;;1.60;1.50;;;1.60;98.20;;;;;;5055188;28;20462;-76
2023/03/03 06:05:49;;;;;;;1.60;1.50;;;1.70;98.20;;;;;;5050645;28;20499;-76
2023/03/03 06:08:16;;;;;;;1.60;1.50;;;1.70;98.20;;;;;;5046777;28;20469;-75
2023/03/03 06:10:44;;;;;;;1.57;1.43;;;1.70;98.20;;;;;;5045830;28;20462;-72
2023/03/03 06:13:11;;;;;;;3.30;3.10;;;1.70;98.20;;;;;;5042332;28;20699;-72
2023/03/03 06:15:38;;;;;;;1.60;1.50;;;1.70;98.20;;;;;;5042980;28;20482;-72
2023/03/03 06:18:05;;;;;;;1.60;1.50;;;1.70;98.20;;;;;;5042963;28;20500;-73
2023/03/03 06:20:32;;;;;;;1.60;1.50;;;1.70;98.20;;;;;;5046540;28;20466;-73
2023/03/03 06:22:59;;;;;;;1.60;1.50;;;1.70;98.20;;;;;;5032423;28;20534;-73
2023/03/03 06:25:27;;;;;;;1.60;1.43;;;1.70;98.20;;;;;;5052181;28;20493;-72
2023/03/03 06:27:55;;;;;;;1.60;1.50;;;1.70;98.20;;;;;;5039468;28;20491;-72
2023/03/03 06:30:22;;;;;;;1.60;1.50;;;1.80;98.20;;;;;;5047633;28;20961;-72
2023/03/03 06:32:49;;;;;;;1.60;1.50;;;1.80;98.20;;;;;;5042506;28;21013;-75
2023/03/03 06:35:17;;;;;;;1.60;1.50;;;1.80;98.20;;;;;;5040527;28;20517;-74
2023/03/03 06:37:43;;;;;;;1.60;1.50;;;1.80;98.20;;;;;;5037469;28;20481;-75
2023/03/03 06:40:11;;;;;;;1.80;1.70;;;1.80;98.20;;;;;;5041840;28;20465;-75
2023/03/03 06:42:38;;;;;;;1.60;1.50;;;1.80;98.20;;;;;;5029770;28;20485;-75
2023/03/03 06:45:07;;;;;;;1.60;1.50;;;1.80;98.20;;;;;;5031242;28;20480;-75
2023/03/03 06:47:34;;;;;;;1.60;1.50;;;1.90;98.20;;;;;;5030056;28;21089;-74
2023/03/03 06:50:01;;;;;;;3.70;3.20;;;1.90;98.20;;;;;;5038952;28;20478;-73
2023/03/03 06:52:28;;;;;;;1.60;1.50;;;1.90;98.20;;;;;;5026933;28;20493;-73
2023/03/03 06:54:57;;;;;;;1.60;1.50;;;1.90;98.20;;;;;;5051239;28;20483;-74
2023/03/03 06:57:27;;;;;;;2.60;2.40;;;1.90;98.20;;;;;;5027984;28;20964;-72
2023/03/03 06:59:57;;;;;;;2.47;2.27;;;1.90;98.20;;;;;;5037437;28;20471;-72
2023/03/03 07:02:25;;;;;;;1.60;1.50;;;2.00;98.20;;;;;;5028390;28;21157;-73
2023/03/03 07:04:55;;;;;;;1.60;1.50;;;1.90;98.20;;;;;;5040421;28;20565;-73
2023/03/03 07:07:24;;;;;;;1.60;1.40;;;1.90;98.20;;;;;;5035039;28;20486;-73
2023/03/03 07:09:53;;;;;;;1.60;1.50;;;1.90;98.20;;;;;;5046796;28;20474;-73
2023/03/03 07:12:22;;;;;;;1.60;1.50;;;2.00;98.20;;;;;;5029754;28;20497;-73
2023/03/03 07:14:54;;;;;;;1.80;1.70;;;2.00;98.20;;;;;;5042133;28;20486;-73
2023/03/03 07:17:23;;;;;;;1.50;1.40;;;2.00;98.20;;;;;;5037203;28;20490;-72
2023/03/03 07:19:51;;;;;;;1.90;1.80;;;2.00;98.20;;;;;;5050862;28;20470;-73
2023/03/03 07:22:20;;;;;;;1.60;1.43;;;2.10;98.20;;;;;;5036097;28;20496;-73
2023/03/03 07:24:50;;;;;;;1.53;1.40;;;2.10;98.20;;;;;;5044174;28;20482;-72
2023/03/03 07:27:23;;;;;;;1.60;1.50;;;2.10;98.20;;;;;;5023172;28;21256;-73
2023/03/03 07:29:52;;;;;;;1.93;1.77;;;2.10;98.20;;;;;;5035821;28;20889;-73
2023/03/03 07:32:36;;;;;;;1.57;1.40;;;2.10;98.20;;;;;;5030940;28;20481;-73
2023/03/03 07:35:22;;;;;;;1.67;1.57;;;2.10;98.20;;;;;;5037180;28;21050;-74
2023/03/03 07:37:49;;;;;;;1.60;1.50;;;2.10;98.20;;;;;;5028525;28;20477;-73
2023/03/03 07:40:33;;;;;;;1.60;1.50;;;2.10;98.20;;;;;;5033653;28;20632;-74
2023/03/03 07:43:01;;;;;;;2.33;2.13;;;2.10;98.20;;;;;;5030889;28;20469;-73
2023/03/03 07:45:31;;;;;;;1.70;1.60;;;2.10;98.20;;;;;;5039562;28;20477;-74
2023/03/03 07:48:08;;;;;;;4.20;3.90;;;2.10;98.20;;;;;;5028015;28;20479;-73
2023/03/03 07:50:36;;;;;;;2.67;2.47;;;2.10;98.20;;;;;;5028421;28;20471;-73
2023/03/03 07:53:05;;;;;;;1.70;1.60;;;2.10;98.20;;;;;;5032962;28;20477;-73
2023/03/03 07:55:36;;;;;;;1.57;1.40;;;2.10;98.20;;;;;;5036808;28;20583;-73
2023/03/03 07:58:24;;;;;;;2.13;2.03;;;2.20;98.20;;;;;;5030613;28;20489;-73
2023/03/03 08:01:27;;;;;;;1.60;1.40;;;2.20;98.20;;;;;;5019540;28;20478;-73
2023/03/03 08:03:54;;;;;;;1.60;1.50;;;2.20;98.20;;;;;;5036390;28;20890;-74
2023/03/03 08:06:37;;;;;;;1.57;1.40;;;2.30;98.20;;;;;;5032135;28;20588;-74
2023/03/03 08:09:33;;;;;;;1.60;1.40;;;2.40;98.20;;;;;;5034852;28;20471;-75
2023/03/03 08:12:11;;;;;;;1.60;1.47;;;2.40;98.20;;;;;;5035254;28;21022;-75
2023/03/03 08:14:39;;;;;;;1.57;1.40;;;2.40;98.20;;;;;;5038676;28;20982;-75
2023/03/03 08:17:14;;;;;;;1.60;1.50;;;2.40;98.20;;;;;;5030969;28;20485;-75
2023/03/03 08:19:41;;;;;;;1.70;1.60;;;2.40;98.20;;;;;;5047625;28;20540;-74
2023/03/03 08:22:16;;;;;;;1.60;1.40;;;2.40;98.20;;;;;;5032895;28;20489;-76
2023/03/03 08:24:43;;;;;;;5.93;2.33;;;2.40;98.20;;;;;;5034159;28;20492;-74
2023/03/03 08:27:09;;;;;;;1.60;1.40;;;2.40;98.20;;;;;;5023608;28;20496;-75
2023/03/03 08:29:36;;;;;;;1.60;1.50;;;2.50;98.20;;;;;;5036495;28;20467;-75
2023/03/03 08:32:03;;;;;;;1.80;1.70;;;2.50;98.20;;;;;;5035417;28;20489;-75
2023/03/03 08:34:30;;;;;;;1.60;1.33;;;2.60;98.20;;;;;;5045548;28;20489;-76
2023/03/03 08:36:57;;;;;;;1.60;1.50;;;2.70;98.20;;;;;;5029745;28;20494;-75
2023/03/03 08:39:25;;;;;;;1.60;1.40;;;2.70;98.20;;;;;;5029201;28;20529;-76
2023/03/03 08:41:52;;;;;;;1.53;1.40;;;2.80;98.20;;;;;;5032840;28;20482;-76
2023/03/03 08:44:19;;;;;;;1.60;1.40;;;2.80;98.20;;;;;;5038239;28;20949;-76
2023/03/03 08:46:46;;;;;;;1.60;1.50;;;2.90;98.20;;;;;;5025093;28;20486;-76
2023/03/03 08:49:12;;;;;;;1.60;1.40;;;2.90;98.20;;;;;;5034126;28;20462;-75
2023/03/03 08:51:39;;;;;;;1.60;1.30;;;3.00;98.20;;;;;;5031942;28;21011;-75
2023/03/03 08:54:06;;;;;;;1.60;1.40;;;3.00;98.20;;;;;;5036922;28;20485;-75
2023/03/03 08:56:34;;;;;;;1.60;1.50;;;3.00;98.20;;;;;;5027156;28;20482;-75
2023/03/03 08:59:01;;;;;;;3.00;2.70;;;3.00;98.20;;;;;;5042880;28;20465;-76
2023/03/03 09:01:28;;;;;;;1.60;1.37;;;3.00;98.20;;;;;;5030545;28;20482;-73
2023/03/03 09:03:55;;;;;;;1.60;1.40;;;3.00;98.20;;;;;;5045693;28;20459;-76
2023/03/03 09:06:22;;;;;;;1.57;1.40;;;3.00;98.20;;;;;;5033551;28;20929;-75
2023/03/03 09:08:49;;;;;;;1.60;1.50;;;3.10;98.20;;;;;;5036210;28;20818;-76
2023/03/03 09:11:23;;;;;;;3.40;3.10;;;3.20;98.20;;;;;;5032201;28;20553;-77
2023/03/03 09:13:54;;;;;;;1.57;1.30;;;3.20;98.20;;;;;;5029250;28;20777;-76
2023/03/03 09:16:21;;;;;;;1.60;1.40;;;3.30;98.20;;;;;;5031490;28;20490;-73
2023/03/03 09:18:48;;;;;;;1.60;1.30;;;3.30;98.20;;;;;;5034153;28;20470;-75
2023/03/03 09:21:23;;;;;;;3.30;3.10;;;3.30;98.20;;;;;;5030392;28;20478;-75
2023/03/03 09:23:57;;;;;;;1.57;1.33;;;3.40;98.20;;;;;;5045107;28;20449;-75
2023/03/03 09:26:29;;;;;;;1.57;1.40;;;3.40;98.20;;;;;;5023129;28;21013;-73
2023/03/03 09:29:06;;;;;;;1.60;1.40;;;3.40;98.20;;;;;;5034841;28;20475;-77
2023/03/03 09:34:22;;;;;;;1.60;1.40;;;3.40;98.20;;;;;;5065082;22;20505;-70
2023/03/03 09:36:50;;;;;;;2.23;2.03;;;3.50;98.20;;;;;;5046172;28;20869;-70
2023/03/03 09:39:19;;;;;;;1.60;1.50;;;3.50;98.20;;;;;;5061548;28;20472;-72
2023/03/03 09:42:25;;;;;;;1.60;1.33;;;3.50;98.20;;;;;;5049161;28;20551;-73
2023/03/03 09:45:20;;;;;;;1.60;1.50;;;3.50;98.20;;;;;;5036884;28;20866;-71
2023/03/03 09:48:04;;;;;;;1.57;1.40;;;3.50;98.20;;;;;;5010574;28;20480;-72
2023/03/03 09:50:42;;;;;;;1.60;1.43;;;3.50;98.20;;;;;;5037456;28;20489;-76
2023/03/03 09:53:21;;;;;;;1.60;1.40;;;3.50;98.20;;;;;;5025161;28;20493;-73
2023/03/03 09:55:54;;;;;;;1.57;1.30;;;3.40;98.20;;;;;;5027355;28;20464;-72
2023/03/03 09:58:35;;;;;;;1.60;1.40;;;3.40;98.20;;;;;;5040417;28;20465;-72
2023/03/03 10:01:18;;;;;;;1.70;1.40;;;3.30;98.20;;;;;;5029578;28;20549;-73
2023/03/03 10:04:15;;;;;;;1.50;1.30;;;3.40;98.20;;;;;;5039918;28;20591;-73
2023/03/03 10:06:46;;;;;;;1.60;1.40;;;3.50;98.20;;;;;;5000918;28;20511;-72
2023/03/03 10:09:42;;;;;;;1.53;1.40;;;3.60;98.20;;;;;;5028432;28;20735;-73
2023/03/03 10:12:14;;;;;;;1.60;1.40;;;3.60;98.20;;;;;;5026994;28;20478;-74
2023/03/03 10:14:59;;;;;;;1.50;1.30;;;3.60;98.20;;;;;;5046671;28;20471;-72
2023/03/03 10:17:40;;;;;;;1.77;1.67;;;3.70;98.20;;;;;;5031006;28;20477;-71
2023/03/03 10:20:26;;;;;;;1.60;1.47;;;3.60;98.20;;;;;;5038245;28;20473;-71
2023/03/03 10:22:55;;;;;;;1.57;1.33;;;3.60;98.20;;;;;;5026722;28;20490;-73
2023/03/03 10:25:32;;;;;;;1.57;1.30;;;3.70;98.20;;;;;;5050307;28;20549;-73
2023/03/03 10:28:18;;;;;;;1.50;1.40;;;3.70;98.20;;;;;;5029383;28;20486;-73
2023/03/03 10:30:53;;;;;;;1.60;1.30;;;3.80;98.20;;;;;;5049574;28;20566;-71
2023/03/03 10:33:28;;;;;;;1.60;1.40;;;3.80;98.20;;;;;;5010940;28;20518;-71
2023/03/03 10:36:27;;;;;;;1.60;1.40;;;3.80;98.20;;;;;;5040399;28;20489;-72
2023/03/03 10:39:27;;;;;;;1.53;1.30;;;3.90;98.20;;;;;;5034540;28;20461;-73
2023/03/03 10:42:19;;;;;;;1.60;1.33;;;3.90;98.20;;;;;;5024860;28;20474;-73
2023/03/03 10:45:29;;;;;;;1.53;1.30;;;3.90;98.20;;;;;;5044550;28;20504;-72
2023/03/03 10:48:17;;;;;;;1.57;1.30;;;3.90;98.20;;;;;;5029580;28;20595;-73
2023/03/03 10:50:54;;;;;;;1.50;1.30;;;3.90;98.20;;;;;;5028182;28;20462;-71
2023/03/03 10:53:31;;;;;;;1.60;1.40;;;4.00;98.20;;;;;;5015410;28;21266;-72
2023/03/03 10:56:12;;;;;;;1.57;1.30;;;4.10;98.20;;;;;;5031725;28;20462;-72
2023/03/03 10:58:48;;;;;;;1.50;1.30;;;4.20;98.20;;;;;;5038941;28;20552;-72
2023/03/03 11:01:26;;;;;;;1.60;1.40;;;4.10;98.20;;;;;;5023120;28;20480;-72
2023/03/03 11:04:22;;;;;;;1.60;1.40;;;4.10;98.20;;;;;;5041489;28;20489;-72
2023/03/03 11:06:58;;;;;;;1.60;1.40;;;4.10;98.20;;;;;;5029519;28;20490;-72
2023/03/03 11:09:48;;;;;;;1.60;1.40;;;4.10;98.20;;;;;;5049008;28;20466;-72
2023/03/03 11:12:28;;;;;;;1.57;1.30;;;4.10;98.20;;;;;;5025030;28;20539;-72
2023/03/03 11:15:11;;;;;;;1.53;1.30;;;4.10;98.20;;;;;;5041135;28;20458;-72
2023/03/03 11:17:52;;;;;;;1.60;1.40;;;4.10;98.20;;;;;;5029857;28;20505;-72
2023/03/03 11:20:29;;;;;;;6.63;6.20;;;4.20;98.20;;;;;;5039929;28;20956;-72
2023/03/03 11:23:06;;;;;;;1.53;1.30;;;4.10;98.20;;;;;;5028046;28;20862;-71
2023/03/03 11:25:43;;;;;;;1.60;1.40;;;4.10;98.20;;;;;;5049809;28;20567;-71
2023/03/03 11:28:24;;;;;;;1.70;1.60;;;4.20;98.20;;;;;;5028615;28;20507;-72
2023/03/03 11:31:07;;;;;;;1.60;1.33;;;4.30;98.20;;;;;;5030042;28;20458;-71
2023/03/03 11:33:40;;;;;;;1.90;1.80;;;4.30;98.20;;;;;;5041751;28;20583;-74
2023/03/03 11:36:22;;;;;;;1.60;1.40;;;4.50;98.20;;;;;;5039365;28;20479;-73
2023/03/03 11:38:56;;;;;;;1.57;1.20;;;4.60;98.20;;;;;;5045826;28;20512;-73
2023/03/03 11:41:31;;;;;;;1.60;1.40;;;4.60;98.20;;;;;;5036629;28;21024;-73
2023/03/03 11:44:07;;;;;;;1.97;1.87;;;4.60;98.20;;;;;;5040105;28;21347;-72
2023/03/03 11:46:40;;;;;;;1.60;1.40;;;4.70;98.20;;;;;;5031585;28;20481;-73
2023/03/03 11:49:16;;;;;;;1.53;1.30;;;4.80;98.20;;;;;;5039123;28;20788;-72
2023/03/03 11:51:54;;;;;;;1.57;1.30;;;4.80;98.20;;;;;;5028727;28;20482;-72
2023/03/03 11:54:27;;;;;;;1.57;1.30;;;4.90;98.20;;;;;;5036557;28;21292;-72
2023/03/03 11:57:08;;;;;;;1.60;1.40;;;4.90;98.20;;;;;;5033166;28;21015;-72
2023/03/03 12:00:16;;;;;;;1.50;1.30;;;4.90;98.20;;;;;;5036700;28;20472;-72
2023/03/03 12:03:02;;;;;;;1.60;1.43;;;5.00;98.20;;;;;;4998178;28;20528;-72
2023/03/03 12:05:56;;;;;;;1.60;1.40;;;5.10;98.20;;;;;;5045354;28;20995;-72
2023/03/03 12:08:34;;;;;;;1.57;1.30;;;5.20;98.20;;;;;;5017993;28;20478;-72
2023/03/03 12:11:11;;;;;;;1.57;1.30;;;5.20;98.20;;;;;;5035832;28;20470;-71
2023/03/03 12:13:51;;;;;;;1.57;1.30;;;5.30;98.20;;;;;;5033794;28;20490;-72
2023/03/03 12:16:38;;;;;;;1.60;1.40;;;5.30;98.20;;;;;;5031841;28;20527;-72
2023/03/03 12:19:25;;;;;;;1.57;1.30;;;5.40;98.20;;;;;;5037402;28;21016;-71
2023/03/03 12:22:32;;;;;;;1.60;1.30;;;5.30;98.20;;;;;;5028446;28;20482;-72
2023/03/03 12:25:23;;;;;;;1.57;1.30;;;5.40;98.20;;;;;;4981607;28;20459;-72
2023/03/03 12:27:58;;;;;;;1.50;1.30;;;5.30;98.20;;;;;;4952029;28;20478;-72
2023/03/03 12:30:37;;;;;;;1.60;1.30;;;5.30;98.20;;;;;;5022048;28;20894;-75
2023/03/03 12:33:15;;;;;;;1.53;1.30;;;5.30;98.20;;;;;;5024053;28;20489;-73
2023/03/03 12:35:52;;;;;;;1.50;1.27;;;5.50;98.20;;;;;;5040058;28;20466;-73
2023/03/03 12:38:29;;;;;;;1.50;1.20;;;5.60;98.20;;;;;;5009492;28;20474;-72
2023/03/03 12:41:03;;;;;;;1.50;1.20;;;5.70;98.20;;;;;;5024247;28;20976;-72
2023/03/03 12:43:53;;;;;;;1.70;1.60;;;5.80;98.20;;;;;;5033185;28;20532;-72
2023/03/03 12:46:25;;;;;;;3.00;2.70;;;5.80;98.20;;;;;;5027227;28;20505;-72
2023/03/03 12:48:53;;;;;;;1.50;1.30;;;5.80;98.20;;;;;;5035516;28;20502;-73
2023/03/03 12:51:31;;;;;;;1.60;1.20;;;5.80;98.20;;;;;;5025235;28;20482;-71
2023/03/03 12:54:19;;;;;;;2.63;2.43;;;5.90;98.20;;;;;;5043060;28;20486;-72
2023/03/03 12:56:52;;;;;;;1.53;1.23;;;5.80;98.20;;;;;;5027655;28;20722;-75
2023/03/03 12:59:29;;;;;;;1.50;1.20;;;5.80;98.20;;;;;;5041968;28;20943;-73
2023/03/03 13:02:35;;;;;;;1.50;1.20;;;5.90;98.20;;;;;;5029308;28;21037;-74
2023/03/03 13:05:09;;;;;;;1.50;1.20;;;6.10;98.20;;;;;;5044270;28;20458;-73
2023/03/03 13:07:45;;;;;;;1.50;1.30;;;6.30;98.20;;;;;;5025970;28;20751;-72
2023/03/03 13:10:20;;;;;;;5.97;5.47;;;6.30;98.20;;;;;;5045491;28;20470;-72
2023/03/03 13:12:56;;;;;;;1.57;1.30;;;6.40;98.20;;;;;;5024034;28;20486;-73
2023/03/03 13:15:30;;;;;;;1.60;1.30;;;6.40;98.20;;;;;;5043291;28;21430;-72
2023/03/03 13:18:29;;;;;;;1.60;1.30;;;6.40;98.20;;;;;;5012888;28;20483;-73
2023/03/03 13:21:04;;;;;;;1.53;1.20;;;6.40;98.20;;;;;;5021141;28;20461;-74
2023/03/03 13:23:43;;;;;;;1.53;1.27;;;6.50;98.20;;;;;;5044163;28;20575;-74
2023/03/03 13:26:16;;;;;;;1.53;1.20;;;6.50;98.20;;;;;;5024646;28;20851;-73
2023/03/03 13:29:03;;;;;;;1.60;1.30;;;6.60;98.20;;;;;;5031687;28;20461;-74
2023/03/03 13:31:35;;;;;;;1.57;1.20;;;6.60;98.20;;;;;;5034169;28;21096;-74